KRDG/RDG METAR and TAF weather

Enter ICAO airport designator
Station Type Date Time Source
KRDG METAR 2022/06/30 13:54 UTC NOAA

KRDG 301354Z 00000KT 10SM CLR 25/14 A3023 RMK AO2 SLP240 T02500144


Station Type Date Time Source
KRDG Decoded METAR 2022/06/30 13:54 UTC NOAA

READING REGIONAL AIRPORT, PA, United States (KRDG) 40-22N 075-58W 109M
Jun 30, 2022 - 09:54 AM EDT / 2022.06.30 1354 UTC
Wind: Calm:0
Visibility: 10 mile(s):0
Sky conditions: clear
Temperature: 77.0 F (25.0 C)
Dew Point: 57.9 F (14.4 C)
Relative Humidity: 51%
Pressure (altimeter): 30.23 in. Hg (1023 hPa)
ob: KRDG 301354Z 00000KT 10SM CLR 25/14 A3023 RMK AO2 SLP240 T02500144
cycle: 14

Station Type Date Time Source
KRDG TAF 2022/06/30 12:22 UTC NOAA

TAF KRDG 301120Z 3012/0112 VRB02KT P6SM SKC
FM301600 28007KT P6SM SKC
FM302100 23005KT P6SM FEW250
FM010100 18003KT P6SM SKC

Example: see airport list